sensor_id;sensor_type;location;lat;lon;timestamp;pressure;altitude;pressure_sealevel;temperature;humidity
66385;BME280;53426;55.872;37.462;2023-11-21T00:01:58;98723.31;;;-6.50;60.04
66385;BME280;53426;55.872;37.462;2023-11-21T00:04:25;98717.22;;;-6.47;59.70
66385;BME280;53426;55.872;37.462;2023-11-21T00:06:54;98723.44;;;-6.54;59.75
66385;BME280;53426;55.872;37.462;2023-11-21T00:09:20;98704.69;;;-6.59;59.54
66385;BME280;53426;55.872;37.462;2023-11-21T00:11:47;98719.78;;;-6.47;60.04
66385;BME280;53426;55.872;37.462;2023-11-21T00:14:13;98724.94;;;-6.47;59.92
66385;BME280;53426;55.872;37.462;2023-11-21T00:16:41;98728.56;;;-6.54;59.93
66385;BME280;53426;55.872;37.462;2023-11-21T00:19:07;98729.34;;;-6.51;59.64
66385;BME280;53426;55.872;37.462;2023-11-21T00:21:33;98700.50;;;-6.62;60.31
66385;BME280;53426;55.872;37.462;2023-11-21T00:23:59;98732.06;;;-6.55;60.11
66385;BME280;53426;55.872;37.462;2023-11-21T00:26:27;98723.88;;;-6.69;59.77
66385;BME280;53426;55.872;37.462;2023-11-21T00:29:00;98727.94;;;-6.61;60.12
66385;BME280;53426;55.872;37.462;2023-11-21T00:31:27;98731.28;;;-6.59;60.35
66385;BME280;53426;55.872;37.462;2023-11-21T00:33:52;98707.69;;;-6.73;59.93
66385;BME280;53426;55.872;37.462;2023-11-21T00:36:21;98726.44;;;-6.69;60.01
66385;BME280;53426;55.872;37.462;2023-11-21T00:38:46;98716.28;;;-6.74;60.02
66385;BME280;53426;55.872;37.462;2023-11-21T00:41:15;98703.16;;;-6.96;60.14
66385;BME280;53426;55.872;37.462;2023-11-21T00:43:41;98711.53;;;-6.88;60.26
66385;BME280;53426;55.872;37.462;2023-11-21T00:46:07;98718.88;;;-6.76;60.14
66385;BME280;53426;55.872;37.462;2023-11-21T00:48:36;98694.31;;;-6.87;60.16
66385;BME280;53426;55.872;37.462;2023-11-21T00:51:01;98719.16;;;-6.85;60.25
66385;BME280;53426;55.872;37.462;2023-11-21T00:53:27;98719.19;;;-6.86;60.02
66385;BME280;53426;55.872;37.462;2023-11-21T00:55:54;98721.00;;;-6.90;60.12
66385;BME280;53426;55.872;37.462;2023-11-21T00:58:26;98673.63;;;-7.13;60.31
66385;BME280;53426;55.872;37.462;2023-11-21T01:00:52;98703.19;;;-6.97;60.19
66385;BME280;53426;55.872;37.462;2023-11-21T01:03:21;98703.19;;;-6.97;60.39
66385;BME280;53426;55.872;37.462;2023-11-21T01:05:47;98715.13;;;-6.95;59.99
66385;BME280;53426;55.872;37.462;2023-11-21T01:08:15;98681.44;;;-7.16;60.41
66385;BME280;53426;55.872;37.462;2023-11-21T01:10:44;98722.44;;;-7.10;60.33
66385;BME280;53426;55.872;37.462;2023-11-21T01:13:11;98718.13;;;-7.10;60.18
66385;BME280;53426;55.872;37.462;2023-11-21T01:15:37;98690.13;;;-7.21;60.12
66385;BME280;53426;55.872;37.462;2023-11-21T01:18:04;98682.41;;;-7.21;60.26
66385;BME280;53426;55.872;37.462;2023-11-21T01:20:30;98666.63;;;-7.41;60.31
66385;BME280;53426;55.872;37.462;2023-11-21T01:22:56;98715.72;;;-7.16;60.24
66385;BME280;53426;55.872;37.462;2023-11-21T01:25:22;98714.00;;;-7.15;60.18
66385;BME280;53426;55.872;37.462;2023-11-21T01:27:50;98622.63;;;-7.61;60.27
66385;BME280;53426;55.872;37.462;2023-11-21T01:30:16;98714.66;;;-7.09;60.21
66385;BME280;53426;55.872;37.462;2023-11-21T01:32:41;98713.91;;;-7.12;60.35
66385;BME280;53426;55.872;37.462;2023-11-21T01:35:11;98721.56;;;-7.11;60.25
66385;BME280;53426;55.872;37.462;2023-11-21T01:37:37;98718.13;;;-7.10;60.27
66385;BME280;53426;55.872;37.462;2023-11-21T01:40:04;98719.75;;;-7.07;60.22
66385;BME280;53426;55.872;37.462;2023-11-21T01:42:34;98705.16;;;-7.07;60.30
66385;BME280;53426;55.872;37.462;2023-11-21T01:45:00;98698.63;;;-7.19;59.69
66385;BME280;53426;55.872;37.462;2023-11-21T01:47:33;98723.13;;;-7.04;59.87
66385;BME280;53426;55.872;37.462;2023-11-21T01:49:59;98716.50;;;-7.14;59.67
66385;BME280;53426;55.872;37.462;2023-11-21T01:52:25;98718.97;;;-7.09;60.07
66385;BME280;53426;55.872;37.462;2023-11-21T01:54:54;98726.03;;;-7.18;59.52
66385;BME280;53426;55.872;37.462;2023-11-21T01:57:20;98625.59;;;-7.76;59.04
66385;BME280;53426;55.872;37.462;2023-11-21T01:59:48;98707.63;;;-7.35;59.31
66385;BME280;53426;55.872;37.462;2023-11-21T02:02:16;98669.69;;;-7.59;58.91
66385;BME280;53426;55.872;37.462;2023-11-21T02:04:42;98716.19;;;-7.34;59.01
66385;BME280;53426;55.872;37.462;2023-11-21T02:07:08;98713.59;;;-7.34;58.92
66385;BME280;53426;55.872;37.462;2023-11-21T02:09:34;98706.13;;;-7.43;59.08
66385;BME280;53426;55.872;37.462;2023-11-21T02:12:05;98724.75;;;-7.34;58.92
66385;BME280;53426;55.872;37.462;2023-11-21T02:14:31;98706.84;;;-7.37;58.52
66385;BME280;53426;55.872;37.462;2023-11-21T02:16:58;98684.84;;;-7.48;59.33
66385;BME280;53426;55.872;37.462;2023-11-21T02:19:24;98714.16;;;-7.22;58.63
66385;BME280;53426;55.872;37.462;2023-11-21T02:22:19;98694.03;;;-7.40;58.38
66385;BME280;53426;55.872;37.462;2023-11-21T02:24:45;98695.97;;;-7.48;58.61
66385;BME280;53426;55.872;37.462;2023-11-21T02:27:13;98718.75;;;-7.34;58.60
66385;BME280;53426;55.872;37.462;2023-11-21T02:29:40;98636.16;;;-7.88;58.41
66385;BME280;53426;55.872;37.462;2023-11-21T02:32:06;98713.34;;;-7.57;58.59
66385;BME280;53426;55.872;37.462;2023-11-21T02:34:37;98725.13;;;-7.49;59.02
66385;BME280;53426;55.872;37.462;2023-11-21T02:37:07;98727.75;;;-7.52;59.35
66385;BME280;53426;55.872;37.462;2023-11-21T02:39:33;98698.25;;;-7.70;58.74
66385;BME280;53426;55.872;37.462;2023-11-21T02:42:00;98711.69;;;-7.60;59.08
66385;BME280;53426;55.872;37.462;2023-11-21T02:44:27;98725.16;;;-7.50;59.40
66385;BME280;53426;55.872;37.462;2023-11-21T02:46:52;98710.03;;;-7.63;59.03
66385;BME280;53426;55.872;37.462;2023-11-21T02:49:18;98736.38;;;-7.53;59.69
66385;BME280;53426;55.872;37.462;2023-11-21T02:51:44;98724.47;;;-7.57;58.84
66385;BME280;53426;55.872;37.462;2023-11-21T02:54:11;98740.63;;;-7.52;59.62
66385;BME280;53426;55.872;37.462;2023-11-21T02:56:37;98746.44;;;-7.45;59.25
66385;BME280;53426;55.872;37.462;2023-11-21T02:59:03;98743.13;;;-7.49;59.22
66385;BME280;53426;55.872;37.462;2023-11-21T03:01:30;98747.59;;;-7.57;59.88
66385;BME280;53426;55.872;37.462;2023-11-21T03:03:56;98748.44;;;-7.56;59.53
66385;BME280;53426;55.872;37.462;2023-11-21T03:06:22;98740.84;;;-7.61;59.92
66385;BME280;53426;55.872;37.462;2023-11-21T03:08:49;98751.13;;;-7.61;60.41
66385;BME280;53426;55.872;37.462;2023-11-21T03:11:17;98751.81;;;-7.53;60.41
66385;BME280;53426;55.872;37.462;2023-11-21T03:13:44;98752.53;;;-7.48;60.48
66385;BME280;53426;55.872;37.462;2023-11-21T03:16:11;98753.59;;;-7.56;60.50
66385;BME280;53426;55.872;37.462;2023-11-21T03:18:38;98746.88;;;-7.62;60.21
66385;BME280;53426;55.872;37.462;2023-11-21T03:21:06;98742.19;;;-7.80;60.46
66385;BME280;53426;55.872;37.462;2023-11-21T03:23:36;98759.13;;;-7.73;60.98
66385;BME280;53426;55.872;37.462;2023-11-21T03:26:03;98737.19;;;-7.86;61.21
66385;BME280;53426;55.872;37.462;2023-11-21T03:28:33;98747.16;;;-7.74;61.58
66385;BME280;53426;55.872;37.462;2023-11-21T03:30:59;98735.22;;;-7.77;61.17
66385;BME280;53426;55.872;37.462;2023-11-21T03:33:25;98752.19;;;-7.70;61.37
66385;BME280;53426;55.872;37.462;2023-11-21T03:35:51;98746.97;;;-7.67;61.19
66385;BME280;53426;55.872;37.462;2023-11-21T03:38:19;98753.00;;;-7.68;61.84
66385;BME280;53426;55.872;37.462;2023-11-21T03:40:46;98754.53;;;-7.59;61.47
66385;BME280;53426;55.872;37.462;2023-11-21T03:43:13;98760.41;;;-7.55;61.34
66385;BME280;53426;55.872;37.462;2023-11-21T03:45:39;98698.69;;;-7.89;61.39
66385;BME280;53426;55.872;37.462;2023-11-21T03:48:07;98763.09;;;-7.60;61.42
66385;BME280;53426;55.872;37.462;2023-11-21T03:50:35;98755.69;;;-7.74;61.90
66385;BME280;53426;55.872;37.462;2023-11-21T03:53:04;98766.53;;;-7.61;61.65
66385;BME280;53426;55.872;37.462;2023-11-21T03:55:31;98728.47;;;-7.81;62.22
66385;BME280;53426;55.872;37.462;2023-11-21T03:57:58;98762.25;;;-7.61;61.75
66385;BME280;53426;55.872;37.462;2023-11-21T04:00:25;98759.56;;;-7.56;62.43
66385;BME280;53426;55.872;37.462;2023-11-21T04:02:55;98748.59;;;-7.63;61.65
66385;BME280;53426;55.872;37.462;2023-11-21T04:05:23;98757.09;;;-7.59;62.20
66385;BME280;53426;55.872;37.462;2023-11-21T04:07:50;98759.66;;;-7.59;61.93
66385;BME280;53426;55.872;37.462;2023-11-21T04:10:17;98765.78;;;-7.65;61.81
66385;BME280;53426;55.872;37.462;2023-11-21T04:12:44;98773.53;;;-7.66;62.30
66385;BME280;53426;55.872;37.462;2023-11-21T04:15:12;98709.06;;;-7.92;62.59
66385;BME280;53426;55.872;37.462;2023-11-21T04:17:41;98772.88;;;-7.39;62.95
66385;BME280;53426;55.872;37.462;2023-11-21T04:20:09;98772.72;;;-7.33;61.95
66385;BME280;53426;55.872;37.462;2023-11-21T04:22:37;98776.25;;;-7.37;61.39
66385;BME280;53426;55.872;37.462;2023-11-21T04:25:08;98765.13;;;-7.37;61.61
66385;BME280;53426;55.872;37.462;2023-11-21T04:27:35;98771.13;;;-7.37;61.93
66385;BME280;53426;55.872;37.462;2023-11-21T04:30:01;98759.28;;;-7.44;61.57
66385;BME280;53426;55.872;37.462;2023-11-21T04:32:29;98772.16;;;-7.45;61.94
66385;BME280;53426;55.872;37.462;2023-11-21T04:34:55;98767.03;;;-7.45;62.05
66385;BME280;53426;55.872;37.462;2023-11-21T04:37:21;98755.94;;;-7.47;62.03
66385;BME280;53426;55.872;37.462;2023-11-21T04:39:49;98753.47;;;-7.52;62.04
66385;BME280;53426;55.872;37.462;2023-11-21T04:42:15;98777.25;;;-7.42;61.87
66385;BME280;53426;55.872;37.462;2023-11-21T04:44:41;98780.03;;;-7.51;62.35
66385;BME280;53426;55.872;37.462;2023-11-21T04:47:11;98793.84;;;-7.55;61.88
66385;BME280;53426;55.872;37.462;2023-11-21T04:49:41;98789.50;;;-7.53;62.50
66385;BME280;53426;55.872;37.462;2023-11-21T04:52:07;98782.66;;;-7.53;62.19
66385;BME280;53426;55.872;37.462;2023-11-21T04:54:36;98793.56;;;-7.45;62.61
66385;BME280;53426;55.872;37.462;2023-11-21T04:57:03;98785.03;;;-7.45;61.64
66385;BME280;53426;55.872;37.462;2023-11-21T04:59:30;98800.47;;;-7.47;61.82
66385;BME280;53426;55.872;37.462;2023-11-21T05:01:56;98806.56;;;-7.51;62.27
66385;BME280;53426;55.872;37.462;2023-11-21T05:04:22;98790.56;;;-7.62;62.12
66385;BME280;53426;55.872;37.462;2023-11-21T05:06:48;98773.63;;;-7.71;61.52
66385;BME280;53426;55.872;37.462;2023-11-21T05:09:15;98811.44;;;-7.39;62.00
66385;BME280;53426;55.872;37.462;2023-11-21T05:11:42;98788.91;;;-7.65;62.04
66385;BME280;53426;55.872;37.462;2023-11-21T05:14:08;98796.38;;;-7.54;62.03
66385;BME280;53426;55.872;37.462;2023-11-21T05:16:35;98803.84;;;-7.43;61.81
66385;BME280;53426;55.872;37.462;2023-11-21T05:19:02;98818.38;;;-7.42;62.21
66385;BME280;53426;55.872;37.462;2023-11-21T05:21:29;98778.56;;;-7.62;62.26
66385;BME280;53426;55.872;37.462;2023-11-21T05:23:58;98764.22;;;-7.70;62.44
66385;BME280;53426;55.872;37.462;2023-11-21T05:26:24;98808.88;;;-7.40;62.22
66385;BME280;53426;55.872;37.462;2023-11-21T05:28:50;98818.06;;;-7.30;62.13
66385;BME280;53426;55.872;37.462;2023-11-21T05:31:16;98813.97;;;-7.37;62.24
66385;BME280;53426;55.872;37.462;2023-11-21T05:33:42;98783.38;;;-7.48;62.68
66385;BME280;53426;55.872;37.462;2023-11-21T05:36:08;98807.88;;;-7.33;62.73
66385;BME280;53426;55.872;37.462;2023-11-21T05:38:36;98799.06;;;-7.25;62.38
66385;BME280;53426;55.872;37.462;2023-11-21T05:41:03;98801.72;;;-7.28;61.90
66385;BME280;53426;55.872;37.462;2023-11-21T05:43:30;98805.16;;;-7.27;61.48
66385;BME280;53426;55.872;37.462;2023-11-21T05:46:00;98805.31;;;-7.33;62.38
66385;BME280;53426;55.872;37.462;2023-11-21T05:48:26;98800.16;;;-7.33;62.04
66385;BME280;53426;55.872;37.462;2023-11-21T05:50:53;98804.44;;;-7.34;62.50
66385;BME280;53426;55.872;37.462;2023-11-21T05:53:19;98806.94;;;-7.31;62.43
66385;BME280;53426;55.872;37.462;2023-11-21T05:55:46;98805.19;;;-7.29;62.04
66385;BME280;53426;55.872;37.462;2023-11-21T05:58:14;98794.06;;;-7.31;61.75
66385;BME280;53426;55.872;37.462;2023-11-21T06:00:40;98804.69;;;-7.09;61.60
66385;BME280;53426;55.872;37.462;2023-11-21T06:03:06;98803.66;;;-7.02;61.41
66385;BME280;53426;55.872;37.462;2023-11-21T06:05:34;98809.78;;;-7.07;61.67
66385;BME280;53426;55.872;37.462;2023-11-21T06:08:08;98816.66;;;-7.08;61.46
66385;BME280;53426;55.872;37.462;2023-11-21T06:10:34;98816.50;;;-7.00;61.68
66385;BME280;53426;55.872;37.462;2023-11-21T06:13:00;98817.22;;;-6.95;61.55
66385;BME280;53426;55.872;37.462;2023-11-21T06:15:28;98820.34;;;-6.84;60.78
66385;BME280;53426;55.872;37.462;2023-11-21T06:17:54;98831.22;;;-6.73;60.79
66385;BME280;53426;55.872;37.462;2023-11-21T06:20:21;98825.94;;;-6.68;60.69
66385;BME280;53426;55.872;37.462;2023-11-21T06:22:49;98819.31;;;-6.77;60.50
66385;BME280;53426;55.872;37.462;2023-11-21T06:25:16;98803.53;;;-6.97;60.29
66385;BME280;53426;55.872;37.462;2023-11-21T06:27:47;98825.03;;;-6.66;60.41
66385;BME280;53426;55.872;37.462;2023-11-21T06:30:14;98823.91;;;-6.56;60.13
66385;BME280;53426;55.872;37.462;2023-11-21T06:32:43;98813.09;;;-6.38;60.39
66385;BME280;53426;55.872;37.462;2023-11-21T06:35:14;98815.63;;;-6.36;60.09
66385;BME280;53426;55.872;37.462;2023-11-21T06:37:40;98814.00;;;-6.39;59.50
66385;BME280;53426;55.872;37.462;2023-11-21T06:40:07;98821.63;;;-6.36;59.98
66385;BME280;53426;55.872;37.462;2023-11-21T06:42:34;98790.44;;;-6.56;59.60
66385;BME280;53426;55.872;37.462;2023-11-21T06:45:05;98820.66;;;-6.31;60.08
66385;BME280;53426;55.872;37.462;2023-11-21T06:47:33;98817.31;;;-6.35;58.98
66385;BME280;53426;55.872;37.462;2023-11-21T06:50:00;98815.78;;;-6.42;59.18
66385;BME280;53426;55.872;37.462;2023-11-21T06:52:26;98829.44;;;-6.39;59.41
66385;BME280;53426;55.872;37.462;2023-11-21T06:54:55;98831.72;;;-6.28;59.87
66385;BME280;53426;55.872;37.462;2023-11-21T06:57:23;98836.31;;;-6.08;59.26
66385;BME280;53426;55.872;37.462;2023-11-21T06:59:50;98835.75;;;-6.19;58.94
66385;BME280;53426;55.872;37.462;2023-11-21T07:02:19;98833.34;;;-6.25;58.74
66385;BME280;53426;55.872;37.462;2023-11-21T07:04:45;98842.06;;;-6.29;58.96
66385;BME280;53426;55.872;37.462;2023-11-21T07:07:13;98835.88;;;-6.22;59.11
66385;BME280;53426;55.872;37.462;2023-11-21T07:09:40;98835.38;;;-6.06;58.35
66385;BME280;53426;55.872;37.462;2023-11-21T07:12:07;98826.81;;;-6.06;58.38
66385;BME280;53426;55.872;37.462;2023-11-21T07:14:34;98829.56;;;-6.12;58.20
66385;BME280;53426;55.872;37.462;2023-11-21T07:17:01;98813.09;;;-6.38;58.67
66385;BME280;53426;55.872;37.462;2023-11-21T07:19:27;98803.75;;;-6.42;58.98
66385;BME280;53426;55.872;37.462;2023-11-21T07:21:52;98822.53;;;-6.07;58.39
66385;BME280;53426;55.872;37.462;2023-11-21T07:24:18;98837.06;;;-6.05;57.86
66385;BME280;53426;55.872;37.462;2023-11-21T07:26:44;98846.91;;;-6.19;58.39
66385;BME280;53426;55.872;37.462;2023-11-21T07:29:10;98840.94;;;-6.21;58.70
66385;BME280;53426;55.872;37.462;2023-11-21T07:31:38;98820.59;;;-6.30;58.20
66385;BME280;53426;55.872;37.462;2023-11-21T07:34:04;98846.72;;;-6.11;57.73
66385;BME280;53426;55.872;37.462;2023-11-21T07:36:30;98845.09;;;-6.15;58.20
66385;BME280;53426;55.872;37.462;2023-11-21T07:38:55;98841.50;;;-6.10;58.38
66385;BME280;53426;55.872;37.462;2023-11-21T07:41:21;98820.09;;;-6.12;58.05
66385;BME280;53426;55.872;37.462;2023-11-21T07:43:48;98813.16;;;-6.10;58.13
66385;BME280;53426;55.872;37.462;2023-11-21T07:46:16;98850.72;;;-6.01;58.47
66385;BME280;53426;55.872;37.462;2023-11-21T07:48:42;98844.56;;;-5.97;58.33
66385;BME280;53426;55.872;37.462;2023-11-21T07:51:09;98838.69;;;-6.01;58.07
66385;BME280;53426;55.872;37.462;2023-11-21T07:53:36;98825.50;;;-6.21;57.89
66385;BME280;53426;55.872;37.462;2023-11-21T07:56:04;98842.44;;;-6.12;58.08
66385;BME280;53426;55.872;37.462;2023-11-21T07:58:30;98799.41;;;-6.40;57.79
66385;BME280;53426;55.872;37.462;2023-11-21T08:01:02;98824.53;;;-6.48;58.43
66385;BME280;53426;55.872;37.462;2023-11-21T08:03:29;98849.81;;;-6.31;58.26
66385;BME280;53426;55.872;37.462;2023-11-21T08:05:58;98838.78;;;-6.35;58.93
66385;BME280;53426;55.872;37.462;2023-11-21T08:08:26;98832.56;;;-6.27;58.75
66385;BME280;53426;55.872;37.462;2023-11-21T08:10:53;98777.72;;;-6.62;58.46
66385;BME280;53426;55.872;37.462;2023-11-21T08:13:27;98838.47;;;-6.24;58.21
66385;BME280;53426;55.872;37.462;2023-11-21T08:15:54;98807.69;;;-6.28;58.38
66385;BME280;53426;55.872;37.462;2023-11-21T08:18:21;98835.56;;;-6.12;58.64
66385;BME280;53426;55.872;37.462;2023-11-21T08:20:47;98840.56;;;-6.07;58.13
66385;BME280;53426;55.872;37.462;2023-11-21T08:23:14;98816.53;;;-6.08;58.47
66385;BME280;53426;55.872;37.462;2023-11-21T08:25:42;98775.97;;;-6.30;57.91
66385;BME280;53426;55.872;37.462;2023-11-21T08:28:08;98834.16;;;-5.94;58.07
66385;BME280;53426;55.872;37.462;2023-11-21T08:30:34;98822.84;;;-5.88;57.62
66385;BME280;53426;55.872;37.462;2023-11-21T08:33:00;98834.63;;;-5.81;57.90
66385;BME280;53426;55.872;37.462;2023-11-21T08:35:26;98809.91;;;-5.87;57.49
66385;BME280;53426;55.872;37.462;2023-11-21T08:37:52;98830.63;;;-5.90;57.72
66385;BME280;53426;55.872;37.462;2023-11-21T08:40:21;98828.59;;;-5.80;57.90
66385;BME280;53426;55.872;37.462;2023-11-21T08:42:47;98820.34;;;-5.64;58.04
66385;BME280;53426;55.872;37.462;2023-11-21T08:45:15;98802.31;;;-5.64;58.46
66385;BME280;53426;55.872;37.462;2023-11-21T08:47:43;98808.00;;;-5.54;58.93
66385;BME280;53426;55.872;37.462;2023-11-21T08:50:11;98805.53;;;-5.57;58.22
66385;BME280;53426;55.872;37.462;2023-11-21T08:52:39;98818.69;;;-5.66;58.74
66385;BME280;53426;55.872;37.462;2023-11-21T08:55:09;98816.41;;;-5.75;59.04
66385;BME280;53426;55.872;37.462;2023-11-21T08:57:39;98827.19;;;-5.63;59.38
66385;BME280;53426;55.872;37.462;2023-11-21T09:00:08;98811.03;;;-5.68;59.69
66385;BME280;53426;55.872;37.462;2023-11-21T09:02:38;98818.06;;;-5.73;59.69
66385;BME280;53426;55.872;37.462;2023-11-21T09:05:05;98812.09;;;-5.75;59.88
66385;BME280;53426;55.872;37.462;2023-11-21T09:07:32;98817.22;;;-5.73;59.47
66385;BME280;53426;55.872;37.462;2023-11-21T09:09:58;98831.00;;;-5.74;59.48
66385;BME280;53426;55.872;37.462;2023-11-21T09:12:24;98829.19;;;-5.72;59.40
66385;BME280;53426;55.872;37.462;2023-11-21T09:14:55;98798.38;;;-6.03;59.34
66385;BME280;53426;55.872;37.462;2023-11-21T09:17:22;98844.75;;;-5.75;59.23
66385;BME280;53426;55.872;37.462;2023-11-21T09:19:47;98843.31;;;-5.84;59.34
66385;BME280;53426;55.872;37.462;2023-11-21T09:22:17;98775.28;;;-6.37;59.05
66385;BME280;53426;55.872;37.462;2023-11-21T09:24:43;98840.84;;;-5.87;59.33
66385;BME280;53426;55.872;37.462;2023-11-21T09:27:10;98842.41;;;-5.83;59.64
66385;BME280;53426;55.872;37.462;2023-11-21T09:29:37;98827.28;;;-5.94;59.77
66385;BME280;53426;55.872;37.462;2023-11-21T09:32:06;98852.34;;;-5.71;60.24
66385;BME280;53426;55.872;37.462;2023-11-21T09:34:34;98846.91;;;-5.62;60.78
66385;BME280;53426;55.872;37.462;2023-11-21T09:37:04;98853.75;;;-5.61;60.69
66385;BME280;53426;55.872;37.462;2023-11-21T09:39:33;98798.00;;;-5.91;60.47
66385;BME280;53426;55.872;37.462;2023-11-21T09:42:13;98841.06;;;-5.67;60.60
66385;BME280;53426;55.872;37.462;2023-11-21T09:45:03;98843.63;;;-5.67;61.01
66385;BME280;53426;55.872;37.462;2023-11-21T09:47:35;98838.47;;;-5.67;61.69
66385;BME280;53426;55.872;37.462;2023-11-21T09:50:04;98828.38;;;-5.73;61.35
66385;BME280;53426;55.872;37.462;2023-11-21T09:53:23;98856.53;;;-5.67;61.65
66385;BME280;53426;55.872;37.462;2023-11-21T09:55:27;98849.75;;;-5.69;61.75
66385;BME280;53426;55.872;37.462;2023-11-21T09:57:56;98875.25;;;-5.60;61.77
66385;BME280;53426;55.872;37.462;2023-11-21T10:00:27;98795.41;;;-5.89;60.81
66385;BME280;53426;55.872;37.462;2023-11-21T10:02:55;98876.97;;;-5.61;60.62
66385;BME280;53426;55.872;37.462;2023-11-21T10:05:23;98837.16;;;-5.80;60.52
66385;BME280;53426;55.872;37.462;2023-11-21T10:07:51;98824.56;;;-5.89;60.02
66385;BME280;53426;55.872;37.462;2023-11-21T10:10:28;98871.09;;;-5.66;60.35
66385;BME280;53426;55.872;37.462;2023-11-21T10:12:56;98771.19;;;-6.13;60.61
66385;BME280;53426;55.872;37.462;2023-11-21T10:15:24;98769.75;;;-6.23;60.15
66385;BME280;53426;55.872;37.462;2023-11-21T10:17:53;98846.78;;;-5.85;60.01
66385;BME280;53426;55.872;37.462;2023-11-21T10:20:21;98872.19;;;-5.73;60.11
66385;BME280;53426;55.872;37.462;2023-11-21T10:22:50;98874.63;;;-5.68;60.89
66385;BME280;53426;55.872;37.462;2023-11-21T10:25:16;98777.19;;;-6.13;61.06
66385;BME280;53426;55.872;37.462;2023-11-21T10:27:47;98824.97;;;-5.75;60.45
66385;BME280;53426;55.872;37.462;2023-11-21T10:30:14;98836.81;;;-5.68;60.00
66385;BME280;53426;55.872;37.462;2023-11-21T10:32:42;98869.16;;;-5.58;60.33
66385;BME280;53426;55.872;37.462;2023-11-21T10:35:09;98849.44;;;-5.88;59.77
66385;BME280;53426;55.872;37.462;2023-11-21T10:37:37;98744.38;;;-6.66;60.06
66385;BME280;53426;55.872;37.462;2023-11-21T10:40:07;98870.53;;;-5.75;60.05
66385;BME280;53426;55.872;37.462;2023-11-21T10:42:34;98859.59;;;-5.83;60.31
66385;BME280;53426;55.872;37.462;2023-11-21T10:44:59;98865.88;;;-5.63;61.06
66385;BME280;53426;55.872;37.462;2023-11-21T10:47:26;98791.75;;;-6.12;59.82
66385;BME280;53426;55.872;37.462;2023-11-21T10:49:52;98875.53;;;-5.69;59.85
66385;BME280;53426;55.872;37.462;2023-11-21T10:52:19;98868.56;;;-5.67;59.74
66385;BME280;53426;55.872;37.462;2023-11-21T10:54:46;98865.78;;;-5.60;59.31
66385;BME280;53426;55.872;37.462;2023-11-21T10:57:17;98856.88;;;-5.50;59.29
66385;BME280;53426;55.872;37.462;2023-11-21T10:59:47;98859.75;;;-5.31;58.98
66385;BME280;53426;55.872;37.462;2023-11-21T11:02:22;98853.44;;;-5.50;59.15
66385;BME280;53426;55.872;37.462;2023-11-21T11:04:52;98836.53;;;-5.59;58.91
66385;BME280;53426;55.872;37.462;2023-11-21T11:07:19;98872.97;;;-5.41;58.98
66385;BME280;53426;55.872;37.462;2023-11-21T11:09:47;98862.22;;;-5.56;58.67
66385;BME280;53426;55.872;37.462;2023-11-21T11:12:14;98845.31;;;-5.66;58.84
66385;BME280;53426;55.872;37.462;2023-11-21T11:14:41;98875.91;;;-5.54;59.00
66385;BME280;53426;55.872;37.462;2023-11-21T11:17:07;98618.28;;;-6.97;58.79
66385;BME280;53426;55.872;37.462;2023-11-21T11:19:34;98844.34;;;-5.62;58.93
66385;BME280;53426;55.872;37.462;2023-11-21T11:22:31;98823.81;;;-5.65;58.72
66385;BME280;53426;55.872;37.462;2023-11-21T11:27:52;98875.41;;;-5.66;58.55
66385;BME280;53426;55.872;37.462;2023-11-21T11:38:27;98875.13;;;-5.85;59.66
66385;BME280;53426;55.872;37.462;2023-11-21T11:40:58;98892.59;;;-5.65;59.41
66385;BME280;53426;55.872;37.462;2023-11-21T11:43:28;98894.75;;;-5.81;59.08
66385;BME280;53426;55.872;37.462;2023-11-21T11:45:58;98893.22;;;-5.86;59.02
66385;BME280;53426;55.872;37.462;2023-11-21T11:48:25;98906.28;;;-5.93;59.37
66385;BME280;53426;55.872;37.462;2023-11-21T11:51:04;98912.16;;;-5.87;59.10
66385;BME280;53426;55.872;37.462;2023-11-21T11:53:39;98911.38;;;-5.89;59.68
66385;BME280;53426;55.872;37.462;2023-11-21T11:58:53;98891.84;;;-5.98;59.03
66385;BME280;53426;55.872;37.462;2023-11-21T12:01:21;98891.78;;;-5.95;59.47
66385;BME280;53426;55.872;37.462;2023-11-21T12:06:37;98877.97;;;-6.23;59.11
66385;BME280;53426;55.872;37.462;2023-11-21T12:09:03;98905.00;;;-6.07;58.95
66385;BME280;53426;55.872;37.462;2023-11-21T12:11:32;98910.72;;;-6.28;59.59
66385;BME280;53426;55.872;37.462;2023-11-21T12:14:01;98936.13;;;-6.15;59.09
66385;BME280;53426;55.872;37.462;2023-11-21T12:16:28;98898.84;;;-6.34;59.92
66385;BME280;53426;55.872;37.462;2023-11-21T12:18:54;98951.53;;;-6.13;60.00
66385;BME280;53426;55.872;37.462;2023-11-21T12:21:23;98926.63;;;-6.13;60.10
66385;BME280;53426;55.872;37.462;2023-11-21T12:23:49;98911.91;;;-6.09;59.67
66385;BME280;53426;55.872;37.462;2023-11-21T12:26:15;98924.19;;;-6.17;60.06
66385;BME280;53426;55.872;37.462;2023-11-21T12:28:40;98920.78;;;-6.19;60.11
66385;BME280;53426;55.872;37.462;2023-11-21T12:31:08;98894.88;;;-6.46;60.08
66385;BME280;53426;55.872;37.462;2023-11-21T12:33:39;98918.69;;;-6.38;59.85
66385;BME280;53426;55.872;37.462;2023-11-21T12:36:06;98925.41;;;-6.32;59.85
66385;BME280;53426;55.872;37.462;2023-11-21T12:38:36;98929.59;;;-6.28;60.61
66385;BME280;53426;55.872;37.462;2023-11-21T12:41:06;98852.78;;;-6.77;60.17
66385;BME280;53426;55.872;37.462;2023-11-21T12:43:35;98938.00;;;-6.21;60.48
66385;BME280;53426;55.872;37.462;2023-11-21T12:46:11;98902.56;;;-6.44;60.11
66385;BME280;53426;55.872;37.462;2023-11-21T12:48:41;98933.97;;;-6.31;60.07
66385;BME280;53426;55.872;37.462;2023-11-21T12:51:12;98942.84;;;-6.43;60.39
66385;BME280;53426;55.872;37.462;2023-11-21T12:53:41;98931.25;;;-6.59;60.28
66385;BME280;53426;55.872;37.462;2023-11-21T12:56:12;98937.88;;;-6.49;60.76
66385;BME280;53426;55.872;37.462;2023-11-21T12:58:44;98930.34;;;-6.57;60.84
66385;BME280;53426;55.872;37.462;2023-11-21T13:01:14;98927.69;;;-6.54;60.86
66385;BME280;53426;55.872;37.462;2023-11-21T13:03:48;98909.13;;;-6.66;60.47
66385;BME280;53426;55.872;37.462;2023-11-21T13:06:17;98938.81;;;-6.53;60.52
66385;BME280;53426;55.872;37.462;2023-11-21T13:08:50;98934.41;;;-6.48;60.60
66385;BME280;53426;55.872;37.462;2023-11-21T13:11:19;98936.84;;;-6.42;60.37